Time;durP1;ratioP1;P1;durP2;ratioP2;P2;SDS_P1;SDS_P2;PMS_P1;PMS_P2;Temp;Humidity;BMP_temperature;BMP_pressure;BME280_temperature;BME280_humidity;BME280_pressure;Samples;Min_cycle;Max_cycle;Signal;HPM_P1;HPM_P2
2023/12/14 00:00:38;;;;;;;18.37;10.17;;;5.60;99.90;;;;;;4828002;29;20049;-94
2023/12/14 00:03:22;;;;;;;17.87;10.10;;;3.70;99.90;;;;;;4827906;29;20056;-93
2023/12/14 00:05:59;;;;;;;20.38;10.88;;;5.60;99.90;;;;;;4831532;29;20053;-93
2023/12/14 00:12:02;;;;;;;18.67;10.50;;;5.20;99.90;;;;;;4852913;29;20053;-90
2023/12/14 00:14:28;;;;;;;19.33;9.63;;;4.90;99.90;;;;;;4849438;29;20049;-91
2023/12/14 00:16:54;;;;;;;19.80;10.50;;;4.80;99.90;;;;;;4846586;29;20110;-93
2023/12/14 00:19:19;;;;;;;20.50;10.07;;;5.30;99.90;;;;;;4848351;29;20048;-91
2023/12/14 00:22:00;;;;;;;19.90;9.63;;;5.20;99.90;;;;;;4848161;29;20087;-90
2023/12/14 00:24:37;;;;;;;17.43;9.27;;;5.30;99.90;;;;;;4846298;29;20049;-91
2023/12/14 00:27:10;;;;;;;18.50;9.80;;;4.70;99.90;;;;;;4845732;29;20065;-91
2023/12/14 00:29:36;;;;;;;16.73;9.13;;;4.20;99.90;;;;;;4845660;29;20053;-91
2023/12/14 00:32:02;;;;;;;16.33;9.20;;;5.70;99.90;;;;;;4845817;29;20355;-93
2023/12/14 00:34:28;;;;;;;16.83;9.37;;;4.30;99.90;;;;;;4848650;29;20053;-91
2023/12/14 00:36:56;;;;;;;17.50;9.03;;;4.10;99.90;;;;;;4853102;29;20512;-93
2023/12/14 00:39:22;;;;;;;16.60;9.30;;;4.30;99.90;;;;;;4845799;29;20482;-93
2023/12/14 00:41:47;;;;;;;16.27;8.80;;;3.80;99.90;;;;;;4846165;29;20052;-94
2023/12/14 00:44:13;;;;;;;16.83;9.13;;;4.00;99.90;;;;;;4845455;29;20105;-93
2023/12/14 00:46:39;;;;;;;17.57;9.43;;;4.00;99.90;;;;;;4917801;24;20521;-93
2023/12/14 00:49:05;;;;;;;18.03;9.47;;;3.90;99.90;;;;;;4846384;29;20506;-94
2023/12/14 00:51:31;;;;;;;17.83;9.77;;;5.80;99.90;;;;;;4843999;29;20534;-94
2023/12/14 00:54:05;;;;;;;17.23;9.10;;;5.90;99.90;;;;;;4842160;29;20050;-93
2023/12/14 00:56:31;;;;;;;15.93;8.67;;;4.00;99.90;;;;;;4845346;29;20934;-93
2023/12/14 00:58:57;;;;;;;17.57;9.50;;;4.00;99.90;;;;;;4844361;29;20081;-93
2023/12/14 01:01:33;;;;;;;18.43;10.27;;;4.20;99.90;;;;;;4842378;29;20050;-91
2023/12/14 01:04:14;;;;;;;16.60;8.70;;;5.80;99.90;;;;;;4841301;29;20613;-90
2023/12/14 01:06:40;;;;;;;17.23;9.37;;;4.10;99.90;;;;;;4842777;29;20046;-91
2023/12/14 01:09:08;;;;;;;15.80;8.60;;;3.90;99.90;;;;;;4841876;29;20106;-90
2023/12/14 01:11:33;;;;;;;16.37;9.07;;;3.90;99.90;;;;;;4841697;29;20111;-90
2023/12/14 01:13:59;;;;;;;16.73;9.07;;;4.60;99.90;;;;;;4841435;29;20050;-91
2023/12/14 01:16:27;;;;;;;16.27;8.30;;;3.90;99.90;;;;;;4842253;29;20058;-90
2023/12/14 01:19:01;;;;;;;15.80;8.10;;;4.60;99.90;;;;;;4840724;29;20456;-90
2023/12/14 01:21:32;;;;;;;15.33;8.50;;;3.80;99.90;;;;;;4852532;29;20104;-90
2023/12/14 01:23:58;;;;;;;16.37;8.67;;;4.20;99.90;;;;;;4860067;29;20132;-91
2023/12/14 01:27:01;;;;;;;15.30;8.60;;;3.90;99.90;;;;;;4859602;29;20124;-92
2023/12/14 01:29:35;;;;;;;16.30;8.57;;;5.30;99.90;;;;;;4860109;29;20045;-93
2023/12/14 01:32:01;;;;;;;15.73;8.57;;;3.60;99.90;;;;;;4859404;29;20069;-92
2023/12/14 01:34:42;;;;;;;17.10;8.50;;;4.00;99.90;;;;;;4860401;29;20049;-92
2023/12/14 01:37:18;;;;;;;15.37;8.17;;;5.00;99.90;;;;;;4860004;29;20169;-93
2023/12/14 01:39:56;;;;;;;16.30;8.70;;;5.80;99.90;;;;;;4859755;29;20048;-91
2023/12/14 01:42:21;;;;;;;16.10;7.77;;;4.60;99.90;;;;;;4860659;29;20494;-90
2023/12/14 01:45:01;;;;;;;17.63;8.77;;;4.80;99.90;;;;;;4859822;29;20054;-90
2023/12/14 01:48:18;;;;;;;17.23;8.80;;;5.40;99.90;;;;;;4844187;29;20057;-90
2023/12/14 01:50:44;;;;;;;17.83;8.20;;;4.40;99.90;;;;;;4844410;29;20113;-90
2023/12/14 01:53:09;;;;;;;16.60;8.57;;;3.90;99.90;;;;;;4841337;29;20133;-90
2023/12/14 01:55:35;;;;;;;16.87;8.30;;;3.90;99.90;;;;;;4828637;29;20072;-91
2023/12/14 01:58:03;;;;;;;16.53;8.57;;;5.80;99.90;;;;;;4828066;29;20132;-91
2023/12/14 02:00:34;;;;;;;15.57;7.60;;;5.90;99.90;;;;;;4841944;29;20137;-90
2023/12/14 02:03:00;;;;;;;16.33;8.00;;;5.90;99.90;;;;;;4830037;29;20062;-89
2023/12/14 02:05:46;;;;;;;17.70;8.23;;;4.20;99.90;;;;;;4827587;29;20049;-90
2023/12/14 02:08:12;;;;;;;18.67;8.90;;;4.00;99.90;;;;;;4824870;29;20101;-90
2023/12/14 02:10:37;;;;;;;17.57;8.70;;;3.90;99.90;;;;;;4825820;29;20501;-90
2023/12/14 02:13:03;;;;;;;16.50;8.67;;;3.80;99.90;;;;;;4826266;29;20137;-90
2023/12/14 02:15:29;;;;;;;18.17;8.73;;;3.80;99.90;;;;;;4825692;29;20071;-92
2023/12/14 02:18:04;;;;;;;19.23;9.20;;;5.30;99.90;;;;;;4826031;29;20498;-92
2023/12/14 02:20:42;;;;;;;18.70;8.97;;;5.00;99.90;;;;;;4844596;29;20085;-91
2023/12/14 02:23:07;;;;;;;18.73;9.27;;;4.20;99.90;;;;;;4825706;29;20042;-92
2023/12/14 02:25:35;;;;;;;17.63;9.03;;;4.70;99.90;;;;;;4825879;29;20057;-92
2023/12/14 02:28:01;;;;;;;18.87;9.00;;;3.90;99.90;;;;;;4827442;29;20102;-89
2023/12/14 02:30:27;;;;;;;17.00;8.60;;;5.70;99.90;;;;;;4826807;29;20054;-93
2023/12/14 02:33:15;;;;;;;19.50;8.90;;;3.80;99.90;;;;;;4825653;29;20057;-92
2023/12/14 02:35:40;;;;;;;17.90;9.20;;;3.60;99.90;;;;;;4825111;29;20058;-92
2023/12/14 02:38:18;;;;;;;20.57;9.70;;;5.30;99.90;;;;;;4841292;29;20591;-90
2023/12/14 02:40:44;;;;;;;16.37;8.70;;;5.20;99.90;;;;;;4828658;29;20053;-90
2023/12/14 02:43:13;;;;;;;17.57;8.33;;;4.70;99.90;;;;;;4828508;29;20050;-90
2023/12/14 02:45:38;;;;;;;18.90;9.03;;;3.50;99.90;;;;;;4835243;29;20114;-89
2023/12/14 02:48:07;;;;;;;17.57;8.70;;;4.50;99.90;;;;;;4852020;29;20058;-89
2023/12/14 02:50:33;;;;;;;20.33;9.60;;;4.20;99.90;;;;;;4848699;29;20042;-91
2023/12/14 02:53:14;;;;;;;17.70;8.43;;;5.00;99.90;;;;;;4846965;29;20078;-91
2023/12/14 02:55:39;;;;;;;19.67;9.30;;;3.40;99.90;;;;;;4840749;29;20092;-92
2023/12/14 02:58:10;;;;;;;17.93;9.40;;;5.40;99.90;;;;;;4842701;29;20077;-91
2023/12/14 03:00:36;;;;;;;17.63;9.17;;;5.30;99.90;;;;;;4847511;29;20503;-92
2023/12/14 03:03:16;;;;;;;15.90;8.33;;;3.50;99.90;;;;;;4861944;29;20140;-89
2023/12/14 03:05:42;;;;;;;17.17;8.70;;;5.80;99.90;;;;;;4862360;29;20085;-89
2023/12/14 03:08:10;;;;;;;19.10;9.13;;;3.40;99.90;;;;;;4859460;29;20089;-89
2023/12/14 03:10:39;;;;;;;18.43;9.17;;;4.00;99.90;;;;;;4843455;29;20041;-89
2023/12/14 03:13:04;;;;;;;18.80;9.80;;;3.50;99.90;;;;;;4844170;29;20509;-90
2023/12/14 03:15:30;;;;;;;18.17;9.00;;;4.00;99.90;;;;;;4843057;29;20042;-89
2023/12/14 03:18:03;;;;;;;17.87;8.47;;;4.90;99.90;;;;;;4844697;29;20042;-89
2023/12/14 03:21:12;;;;;;;17.77;8.93;;;5.30;99.90;;;;;;4844237;29;20114;-89
2023/12/14 03:23:38;;;;;;;20.03;9.23;;;3.50;99.90;;;;;;4843620;29;20072;-89
2023/12/14 03:26:19;;;;;;;18.13;8.87;;;5.50;99.90;;;;;;4842317;29;20050;-89
2023/12/14 03:28:45;;;;;;;18.83;9.07;;;3.50;99.90;;;;;;4844272;29;20085;-89
2023/12/14 03:31:12;;;;;;;18.93;8.83;;;3.80;99.90;;;;;;4842972;29;20101;-89
2023/12/14 03:33:38;;;;;;;20.00;8.70;;;5.30;99.90;;;;;;4843939;29;20513;-89
2023/12/14 03:36:09;;;;;;;17.27;9.23;;;3.80;99.90;;;;;;4843371;29;20046;-89
2023/12/14 03:38:35;;;;;;;19.17;8.93;;;3.90;99.90;;;;;;4846590;29;20090;-89
2023/12/14 03:41:10;;;;;;;19.63;9.07;;;5.60;99.90;;;;;;4844185;29;20148;-89
2023/12/14 03:43:44;;;;;;;19.20;9.10;;;3.50;99.90;;;;;;4843938;29;20490;-89
2023/12/14 03:46:12;;;;;;;17.20;8.27;;;3.90;99.90;;;;;;4843569;29;20460;-89
2023/12/14 03:48:38;;;;;;;17.77;8.43;;;5.70;99.90;;;;;;4843999;29;20054;-89
2023/12/14 03:51:05;;;;;;;18.23;8.50;;;3.60;99.90;;;;;;4843211;29;20471;-89
2023/12/14 03:53:31;;;;;;;18.23;8.43;;;3.90;99.90;;;;;;4844328;29;20054;-88
2023/12/14 03:56:03;;;;;;;16.57;8.50;;;4.20;99.90;;;;;;4844368;29;20058;-88
2023/12/14 03:58:29;;;;;;;16.97;8.37;;;3.70;99.90;;;;;;4844402;29;20045;-88
2023/12/14 04:00:55;;;;;;;17.60;8.60;;;3.50;99.90;;;;;;4845079;29;20386;-91
2023/12/14 04:03:23;;;;;;;18.07;8.87;;;4.90;99.90;;;;;;4843353;29;20061;-90
2023/12/14 04:06:10;;;;;;;17.27;8.93;;;4.20;99.90;;;;;;4843433;29;20049;-91
2023/12/14 04:08:36;;;;;;;16.70;7.70;;;4.90;99.90;;;;;;4841841;29;20418;-91
2023/12/14 04:11:02;;;;;;;15.67;7.90;;;5.20;99.90;;;;;;4842929;29;20053;-89
2023/12/14 04:13:37;;;;;;;15.47;8.43;;;4.00;99.90;;;;;;4878641;24;20126;-89
2023/12/14 04:16:04;;;;;;;15.17;7.93;;;3.70;99.90;;;;;;4827156;29;20058;-89
2023/12/14 04:18:29;;;;;;;16.50;8.50;;;3.30;99.90;;;;;;4827233;29;20189;-89
2023/12/14 04:21:09;;;;;;;15.70;7.60;;;3.50;99.90;;;;;;4826738;29;20133;-88
2023/12/14 04:23:35;;;;;;;18.47;7.87;;;3.70;99.90;;;;;;4827579;29;20050;-88
2023/12/14 04:26:07;;;;;;;17.57;8.43;;;3.80;99.90;;;;;;4827521;29;20373;-90
2023/12/14 04:28:33;;;;;;;16.90;7.90;;;3.60;99.90;;;;;;4826934;29;20136;-89
2023/12/14 04:30:58;;;;;;;15.90;7.50;;;3.80;99.90;;;;;;4827229;29;20604;-88
2023/12/14 04:33:24;;;;;;;17.73;8.23;;;3.70;99.90;;;;;;4827510;29;20379;-89
2023/12/14 04:35:50;;;;;;;15.87;7.10;;;3.40;99.90;;;;;;4826421;29;20045;-89
2023/12/14 04:38:16;;;;;;;14.27;6.87;;;4.50;99.90;;;;;;4826959;29;20092;-88
2023/12/14 04:40:42;;;;;;;16.67;6.50;;;3.70;99.90;;;;;;4827289;29;20078;-88
2023/12/14 04:43:10;;;;;;;15.40;7.60;;;3.90;99.90;;;;;;4826405;29;20431;-88
2023/12/14 04:45:36;;;;;;;15.63;7.63;;;3.70;99.90;;;;;;4843709;29;20106;-88
2023/12/14 04:48:14;;;;;;;17.87;8.03;;;3.80;99.90;;;;;;4827416;29;20062;-89
2023/12/14 04:50:40;;;;;;;15.33;7.50;;;4.60;99.90;;;;;;4823242;29;20103;-89
2023/12/14 04:53:05;;;;;;;17.33;8.10;;;4.10;99.90;;;;;;4823856;29;20049;-89
2023/12/14 04:55:40;;;;;;;17.70;9.20;;;4.30;99.90;;;;;;4823009;29;20065;-88
2023/12/14 04:58:06;;;;;;;16.37;8.00;;;5.60;99.90;;;;;;4808798;29;20077;-89
2023/12/14 05:00:32;;;;;;;14.47;7.40;;;5.00;99.90;;;;;;4824180;29;20065;-88
2023/12/14 05:02:57;;;;;;;19.63;9.57;;;3.00;99.90;;;;;;4818292;29;20049;-89
2023/12/14 05:05:23;;;;;;;17.17;8.00;;;5.40;99.90;;;;;;4826359;29;20058;-88
2023/12/14 05:07:48;;;;;;;19.63;8.73;;;5.30;99.90;;;;;;4826861;29;20061;-88
2023/12/14 05:10:24;;;;;;;;;;;;;;;;;;;;;
2023/12/14 05:12:57;;;;;;;14.25;7.15;;;4.90;99.90;;;;;;4913957;23;20073;-89
2023/12/14 05:15:32;;;;;;;16.10;7.70;;;3.60;99.90;;;;;;4844830;29;20200;-89
2023/12/14 05:17:58;;;;;;;15.60;7.23;;;5.60;99.90;;;;;;4843981;29;20057;-89
2023/12/14 05:20:23;;;;;;;14.70;7.23;;;4.40;99.90;;;;;;4845048;29;20056;-89
2023/12/14 05:22:49;;;;;;;14.63;6.77;;;4.80;99.90;;;;;;4848377;29;20132;-89
2023/12/14 05:25:32;;;;;;;15.00;7.37;;;3.70;99.90;;;;;;4846890;29;20453;-89
2023/12/14 05:27:58;;;;;;;15.23;7.25;;;3.00;99.90;;;;;;4845464;29;20450;-90
2023/12/14 05:30:23;;;;;;;13.33;6.60;;;5.40;99.90;;;;;;4845724;29;20061;-90
2023/12/14 05:32:49;;;;;;;15.23;7.27;;;4.10;99.90;;;;;;4846475;29;20436;-89
2023/12/14 05:35:24;;;;;;;17.00;8.00;;;3.30;99.90;;;;;;4844038;29;20413;-89
2023/12/14 05:37:50;;;;;;;14.87;7.57;;;3.50;99.90;;;;;;4844432;29;20049;-89
2023/12/14 05:40:31;;;;;;;15.87;7.60;;;4.70;99.90;;;;;;4844094;29;20055;-89
2023/12/14 05:42:57;;;;;;;15.27;7.70;;;5.00;99.90;;;;;;4844310;29;20140;-89
2023/12/14 05:45:23;;;;;;;15.90;7.70;;;3.50;99.90;;;;;;4843911;29;20132;-89
2023/12/14 05:48:05;;;;;;;16.10;8.00;;;3.90;99.90;;;;;;4844540;29;20075;-89
2023/12/14 05:50:31;;;;;;;15.13;7.70;;;3.80;99.90;;;;;;4846647;29;20542;-90
2023/12/14 05:53:05;;;;;;;15.60;7.80;;;5.20;99.90;;;;;;4867528;29;20034;-88
2023/12/14 05:55:33;;;;;;;15.97;7.70;;;4.10;99.90;;;;;;4854783;29;20097;-90
2023/12/14 05:57:59;;;;;;;17.27;8.10;;;3.20;99.90;;;;;;4846817;29;20045;-89
2023/12/14 06:00:37;;;;;;;16.77;8.23;;;3.50;99.90;;;;;;4844167;29;20068;-89
2023/12/14 06:03:03;;;;;;;15.00;7.80;;;3.50;99.90;;;;;;4844261;29;20045;-89
2023/12/14 06:05:28;;;;;;;19.40;9.00;;;3.90;99.90;;;;;;4844574;29;20705;-89
2023/12/14 06:07:54;;;;;;;16.83;8.03;;;3.60;99.90;;;;;;4843781;29;20060;-90
2023/12/14 06:10:26;;;;;;;18.43;8.67;;;4.50;99.90;;;;;;4844426;29;20049;-90
2023/12/14 06:12:52;;;;;;;19.77;9.53;;;5.10;99.90;;;;;;4839875;29;20061;-89
2023/12/14 06:15:17;;;;;;;16.80;8.40;;;3.90;99.90;;;;;;4840803;29;20061;-89
2023/12/14 06:17:43;;;;;;;17.13;8.57;;;4.20;99.90;;;;;;4841303;29;20103;-89
2023/12/14 06:20:09;;;;;;;17.47;9.07;;;3.80;99.90;;;;;;4839329;29;20054;-89
2023/12/14 06:22:39;;;;;;;16.50;8.80;;;3.80;99.90;;;;;;4841196;29;20054;-89
2023/12/14 06:25:14;;;;;;;17.83;8.43;;;4.10;99.90;;;;;;4841108;29;20356;-89
2023/12/14 06:27:41;;;;;;;16.73;8.83;;;4.60;99.90;;;;;;4840413;29;20394;-84
2023/12/14 06:30:09;;;;;;;18.10;8.77;;;3.70;99.90;;;;;;4832435;29;20050;-86
2023/12/14 06:32:35;;;;;;;25.30;6.70;;;3.80;99.90;;;;;;4824921;29;20046;-86
2023/12/14 06:35:00;;;;;;;15.87;5.93;;;3.80;99.90;;;;;;4824981;29;20498;-85
2023/12/14 06:37:26;;;;;;;15.23;6.67;;;3.80;99.90;;;;;;4826505;29;20083;-86
2023/12/14 06:39:57;;;;;;;16.27;6.80;;;4.70;99.90;;;;;;4825887;29;20058;-87
2023/12/14 06:42:27;;;;;;;15.05;7.38;;;4.90;99.90;;;;;;4826134;29;20046;-87
2023/12/14 06:44:53;;;;;;;15.40;7.70;;;3.70;99.90;;;;;;4826659;29;20379;-86
2023/12/14 06:47:19;;;;;;;17.60;7.40;;;3.60;99.90;;;;;;4826263;29;20047;-87
2023/12/14 06:49:44;;;;;;;15.17;7.20;;;3.70;99.90;;;;;;4825627;29;20145;-88
2023/12/14 06:52:10;;;;;;;15.13;6.83;;;4.20;99.90;;;;;;4825691;29;20053;-85
2023/12/14 06:57:20;;;;;;;14.30;7.07;;;3.80;99.90;;;;;;4828015;29;20058;-87
2023/12/14 06:59:58;;;;;;;15.57;7.23;;;3.80;99.90;;;;;;4826631;29;20046;-86
2023/12/14 07:02:24;;;;;;;14.90;6.80;;;3.50;99.90;;;;;;4826056;29;20062;-86
2023/12/14 07:04:49;;;;;;;15.23;6.97;;;5.60;99.90;;;;;;4828252;29;20516;-86
2023/12/14 07:07:16;;;;;;;14.43;5.90;;;3.80;99.90;;;;;;4825872;29;20051;-85
2023/12/14 07:09:46;;;;;;;16.57;7.37;;;4.20;99.90;;;;;;4826228;29;20159;-87
2023/12/14 07:12:13;;;;;;;16.00;6.60;;;3.20;99.90;;;;;;4827752;29;20907;-87
2023/12/14 07:14:39;;;;;;;14.63;6.30;;;3.40;99.90;;;;;;4826938;29;20108;-87
2023/12/14 07:17:05;;;;;;;16.60;7.43;;;3.70;99.90;;;;;;4823239;29;20590;-85
2023/12/14 07:19:31;;;;;;;14.87;7.30;;;3.60;99.90;;;;;;4825109;29;20076;-85
2023/12/14 07:21:57;;;;;;;14.60;7.73;;;3.80;99.90;;;;;;4840149;29;20174;-85
2023/12/14 07:31:27;;;;;;;15.27;7.30;;;4.00;99.90;;;;;;4825637;29;20040;-84
2023/12/14 07:33:53;;;;;;;17.23;7.00;;;3.50;99.90;;;;;;4824632;29;20088;-84
2023/12/14 07:36:19;;;;;;;15.77;7.33;;;3.80;99.90;;;;;;4825281;29;20055;-83
2023/12/14 07:38:44;;;;;;;16.10;6.70;;;3.80;99.90;;;;;;4824635;29;20057;-84
2023/12/14 07:41:10;;;;;;;16.37;7.30;;;3.80;99.90;;;;;;4825399;29;20046;-83
2023/12/14 07:43:35;;;;;;;15.83;7.17;;;3.80;99.90;;;;;;4825308;29;20115;-83
2023/12/14 07:46:01;;;;;;;17.37;7.47;;;3.80;99.90;;;;;;4824188;29;20534;-83
2023/12/14 07:48:28;;;;;;;18.33;7.43;;;3.80;99.90;;;;;;4838544;29;20053;-83
2023/12/14 07:50:54;;;;;;;16.17;7.53;;;3.80;99.90;;;;;;4840065;29;20050;-85
2023/12/14 07:53:19;;;;;;;16.63;7.63;;;3.80;99.90;;;;;;4831723;29;20046;-84
2023/12/14 07:55:45;;;;;;;17.03;7.37;;;3.80;99.90;;;;;;4842601;29;20538;-85
2023/12/14 07:58:11;;;;;;;18.70;7.90;;;3.80;99.90;;;;;;4841942;29;20049;-84
2023/12/14 08:00:36;;;;;;;17.00;7.63;;;3.80;99.90;;;;;;4832321;29;20191;-84
2023/12/14 08:03:02;;;;;;;17.30;7.73;;;3.80;99.90;;;;;;4829606;29;20431;-84
2023/12/14 08:05:28;;;;;;;16.93;7.83;;;3.90;99.90;;;;;;4838014;29;20140;-84
2023/12/14 08:07:53;;;;;;;17.47;7.57;;;3.80;99.90;;;;;;4841572;29;20087;-84
2023/12/14 08:10:19;;;;;;;18.17;8.07;;;3.80;99.90;;;;;;4841867;29;20053;-85
2023/12/14 08:12:47;;;;;;;16.90;7.23;;;3.80;99.90;;;;;;4825540;29;20062;-84
2023/12/14 08:15:13;;;;;;;17.27;8.23;;;3.90;99.90;;;;;;4823812;29;20050;-85
2023/12/14 08:17:38;;;;;;;17.07;8.60;;;3.80;99.90;;;;;;4823952;29;20046;-84
2023/12/14 08:20:08;;;;;;;21.27;8.90;;;3.90;99.90;;;;;;4823116;29;20058;-85
2023/12/14 08:22:35;;;;;;;17.80;8.37;;;3.90;99.90;;;;;;4823774;29;20067;-84
2023/12/14 08:25:00;;;;;;;19.73;8.27;;;3.90;99.90;;;;;;4823875;29;20495;-85
2023/12/14 08:27:26;;;;;;;18.50;9.13;;;3.90;99.90;;;;;;4823418;29;20054;-85
2023/12/14 08:29:52;;;;;;;19.03;8.63;;;4.70;99.90;;;;;;4822565;29;20098;-85
2023/12/14 08:32:17;;;;;;;18.87;9.07;;;3.90;99.90;;;;;;4822742;29;20415;-85
2023/12/14 08:34:43;;;;;;;21.07;8.67;;;5.50;99.90;;;;;;4817491;29;20133;-84
2023/12/14 08:37:09;;;;;;;19.47;8.47;;;3.90;99.90;;;;;;4822611;29;20046;-85
2023/12/14 08:39:34;;;;;;;18.17;9.07;;;4.00;99.90;;;;;;4823008;29;20491;-85
2023/12/14 08:42:00;;;;;;;18.27;9.30;;;4.00;99.90;;;;;;4822016;29;20050;-85
2023/12/14 08:44:26;;;;;;;18.47;9.07;;;4.00;99.90;;;;;;4819790;29;20463;-85
2023/12/14 08:46:51;;;;;;;20.07;9.30;;;4.00;99.90;;;;;;4825070;29;20084;-85
2023/12/14 08:49:17;;;;;;;18.63;9.03;;;4.00;99.90;;;;;;4846118;29;20058;-85
2023/12/14 08:51:43;;;;;;;16.63;8.43;;;4.00;99.90;;;;;;4835041;29;20091;-85
2023/12/14 08:54:09;;;;;;;18.67;8.93;;;4.00;99.90;;;;;;4826574;29;20050;-85
2023/12/14 08:56:42;;;;;;;19.30;8.87;;;4.00;99.90;;;;;;4823557;29;20054;-85
2023/12/14 08:59:09;;;;;;;;;;;4.00;99.90;;;;;;4824041;29;20141;-85
2023/12/14 09:01:34;;;;;;;19.20;8.53;;;5.20;99.90;;;;;;4807579;29;19929;-86
2023/12/14 09:04:00;;;;;;;18.43;8.87;;;4.00;99.90;;;;;;4823275;29;20119;-85
2023/12/14 09:06:44;;;;;;;19.23;8.70;;;4.10;99.90;;;;;;4823460;29;20094;-85
2023/12/14 09:09:10;;;;;;;20.67;8.50;;;5.30;99.90;;;;;;4823303;29;20058;-84
2023/12/14 09:11:36;;;;;;;20.57;9.87;;;3.90;99.90;;;;;;4823432;29;20460;-85
2023/12/14 09:14:02;;;;;;;20.17;8.60;;;5.60;99.90;;;;;;4823333;29;20054;-84
2023/12/14 09:16:34;;;;;;;20.73;8.77;;;4.10;99.90;;;;;;4822170;29;20495;-84
2023/12/14 09:19:06;;;;;;;21.03;8.90;;;4.10;99.90;;;;;;4822667;29;20050;-86
2023/12/14 09:21:32;;;;;;;19.80;9.00;;;4.00;99.90;;;;;;4821799;29;20460;-85
2023/12/14 09:24:01;;;;;;;19.70;9.00;;;4.10;99.90;;;;;;4821944;29;20050;-84
2023/12/14 09:26:48;;;;;;;19.67;8.80;;;4.10;99.90;;;;;;4821486;29;20134;-84
2023/12/14 09:29:15;;;;;;;18.13;8.17;;;4.10;99.90;;;;;;4822548;29;20157;-85
2023/12/14 09:31:47;;;;;;;18.33;8.80;;;5.30;99.90;;;;;;4822137;29;20079;-84
2023/12/14 09:34:13;;;;;;;19.40;8.60;;;3.90;99.90;;;;;;4822496;29;20051;-83
2023/12/14 09:36:41;;;;;;;19.67;8.77;;;5.30;99.90;;;;;;4822669;29;20091;-83
2023/12/14 09:39:10;;;;;;;17.77;8.47;;;4.20;99.90;;;;;;4823092;29;20519;-84
2023/12/14 09:42:29;;;;;;;20.87;8.83;;;4.20;99.90;;;;;;4822643;29;20129;-83
2023/12/14 09:44:56;;;;;;;19.33;8.57;;;4.40;99.90;;;;;;4820545;29;20392;-83
2023/12/14 09:47:21;;;;;;;17.97;8.80;;;4.20;99.90;;;;;;4823289;29;20066;-83
2023/12/14 09:49:55;;;;;;;19.27;8.90;;;4.20;99.90;;;;;;4823753;29;20058;-83
2023/12/14 09:52:20;;;;;;;17.98;8.70;;;4.30;99.90;;;;;;4823467;29;20069;-83
2023/12/14 09:54:46;;;;;;;20.37;9.37;;;4.20;99.90;;;;;;4822529;29;20458;-83
2023/12/14 09:57:12;;;;;;;19.50;9.03;;;4.30;99.90;;;;;;4822973;29;20058;-82
2023/12/14 09:59:37;;;;;;;20.77;8.93;;;4.30;99.90;;;;;;4822521;29;20372;-83
2023/12/14 10:02:11;;;;;;;19.70;8.93;;;4.30;99.90;;;;;;4821188;29;20062;-84
2023/12/14 10:04:39;;;;;;;21.73;8.68;;;4.30;99.90;;;;;;4823037;29;20046;-83
2023/12/14 10:07:11;;;;;;;20.33;8.73;;;4.40;99.90;;;;;;4822469;29;20058;-84
2023/12/14 10:09:37;;;;;;;18.60;8.77;;;3.60;99.90;;;;;;4822458;29;20459;-84
2023/12/14 10:12:15;;;;;;;19.13;8.13;;;4.30;99.90;;;;;;4831913;29;20419;-84
2023/12/14 10:15:05;;;;;;;21.83;9.17;;;5.90;99.90;;;;;;4840765;29;20057;-87
2023/12/14 10:17:32;;;;;;;21.07;8.70;;;4.50;99.90;;;;;;4840977;29;20049;-87
2023/12/14 10:20:00;;;;;;;19.10;9.57;;;4.40;99.90;;;;;;4839904;29;20079;-84
2023/12/14 10:22:28;;;;;;;23.53;9.57;;;4.40;99.90;;;;;;4838045;29;20058;-84
2023/12/14 10:24:54;;;;;;;23.73;9.83;;;4.50;99.90;;;;;;4822332;29;20086;-84
2023/12/14 10:27:20;;;;;;;22.73;9.53;;;4.50;99.90;;;;;;4821902;29;20081;-83
2023/12/14 10:29:46;;;;;;;19.33;9.07;;;4.50;99.90;;;;;;4823674;29;20046;-83
2023/12/14 10:32:12;;;;;;;24.50;9.67;;;4.50;99.90;;;;;;4839675;29;20084;-83
2023/12/14 10:34:39;;;;;;;21.50;9.70;;;4.50;99.90;;;;;;4839513;29;20093;-84
2023/12/14 10:37:09;;;;;;;21.27;8.60;;;5.00;99.90;;;;;;4840291;29;20054;-84
2023/12/14 10:39:35;;;;;;;21.80;9.93;;;4.60;99.90;;;;;;4841311;29;20042;-84
2023/12/14 10:42:08;;;;;;;20.67;8.97;;;4.60;99.90;;;;;;4834554;29;20038;-84
2023/12/14 10:44:37;;;;;;;19.10;8.33;;;4.60;99.90;;;;;;4837526;29;20041;-83
2023/12/14 10:47:07;;;;;;;21.53;8.53;;;4.60;99.90;;;;;;4839184;29;20042;-83
2023/12/14 10:49:35;;;;;;;23.87;10.00;;;4.60;99.90;;;;;;4839783;29;20118;-83
2023/12/14 10:52:03;;;;;;;20.33;9.63;;;4.70;99.90;;;;;;4839624;29;20073;-84
2023/12/14 10:54:31;;;;;;;22.50;10.37;;;4.70;99.90;;;;;;4839761;29;20056;-83
2023/12/14 10:56:58;;;;;;;22.60;9.80;;;4.70;99.90;;;;;;4833149;29;20046;-85
2023/12/14 11:00:00;;;;;;;21.17;9.60;;;4.70;99.90;;;;;;4840186;29;20062;-84
2023/12/14 11:02:25;;;;;;;21.60;10.23;;;5.50;99.90;;;;;;4839056;29;20164;-84
2023/12/14 11:05:05;;;;;;;21.50;11.03;;;4.70;99.90;;;;;;4840208;29;20054;-84
2023/12/14 11:07:54;;;;;;;21.53;9.47;;;4.70;99.90;;;;;;4838907;29;20570;-84
2023/12/14 11:10:27;;;;;;;22.47;10.20;;;4.70;99.90;;;;;;4839600;29;20410;-84
2023/12/14 11:13:01;;;;;;;19.93;9.63;;;4.70;99.90;;;;;;4823145;29;20069;-84
2023/12/14 11:15:33;;;;;;;20.70;9.77;;;4.80;99.90;;;;;;4821245;29;20877;-85
2023/12/14 11:18:08;;;;;;;19.87;9.20;;;4.80;99.90;;;;;;4821453;29;20056;-87
2023/12/14 11:21:08;;;;;;;20.30;9.87;;;4.80;99.90;;;;;;4834198;24;20061;-87
2023/12/14 11:28:03;;;;;;;20.80;9.87;;;6.10;99.90;;;;;;4836142;29;20053;-83
2023/12/14 11:34:52;;;;;;;21.40;9.23;;;6.00;99.90;;;;;;4838619;29;20423;-84
2023/12/14 11:37:33;;;;;;;21.57;9.60;;;4.70;99.90;;;;;;4826350;29;20141;-85
2023/12/14 11:40:52;;;;;;;20.23;9.57;;;4.90;99.90;;;;;;4815134;29;20424;-84
2023/12/14 11:43:20;;;;;;;22.03;10.07;;;6.30;99.90;;;;;;4778175;29;20039;-85
2023/12/14 11:49:51;;;;;;;22.83;11.23;;;4.20;99.90;;;;;;4847194;29;20098;-84
2023/12/14 11:52:35;;;;;;;21.37;10.23;;;4.90;99.90;;;;;;4828504;29;20114;-85
2023/12/14 11:55:21;;;;;;;18.58;8.43;;;5.70;99.90;;;;;;4827956;29;20566;-84
2023/12/14 12:01:31;;;;;;;18.37;8.27;;;4.90;99.90;;;;;;5309222;23;20076;-84
2023/12/14 12:05:00;;;;;;;20.67;8.50;;;4.60;99.90;;;;;;4847562;29;20061;-84
2023/12/14 12:08:30;;;;;;;20.10;8.60;;;6.20;99.90;;;;;;4863304;23;20053;-83
2023/12/14 12:10:59;;;;;;;19.73;8.73;;;5.80;99.90;;;;;;4826755;29;20061;-84
2023/12/14 12:13:25;;;;;;;20.93;8.73;;;4.70;99.90;;;;;;4827167;29;20042;-84
2023/12/14 12:16:33;;;;;;;19.20;9.20;;;5.00;99.90;;;;;;4827213;29;20060;-84
2023/12/14 12:19:23;;;;;;;67.83;39.93;;;5.90;99.90;;;;;;4753131;30;20535;-84
2023/12/14 12:21:54;;;;;;;44.33;27.57;;;4.40;99.90;;;;;;4755040;30;20417;-84
2023/12/14 12:24:56;;;;;;;22.27;11.43;;;4.00;99.90;;;;;;4769247;30;20068;-83
2023/12/14 12:27:44;;;;;;;54.47;44.87;;;5.00;99.90;;;;;;4718574;30;20080;-84
2023/12/14 12:30:28;;;;;;;19.07;9.07;;;5.70;99.90;;;;;;4788774;29;20511;-84
2023/12/14 12:33:00;;;;;;;29.77;11.13;;;6.80;99.90;;;;;;4826237;29;20083;-84
2023/12/14 12:35:38;;;;;;;24.03;9.70;;;5.40;99.90;;;;;;4826904;29;20578;-84
2023/12/14 12:38:16;;;;;;;24.43;9.93;;;5.10;99.90;;;;;;4826946;29;20058;-84
2023/12/14 12:40:44;;;;;;;18.20;9.10;;;4.20;99.90;;;;;;4826351;29;20427;-84
2023/12/14 12:43:19;;;;;;;18.47;9.30;;;6.00;99.90;;;;;;4827009;29;20046;-84
2023/12/14 12:45:45;;;;;;;18.73;10.30;;;4.70;99.90;;;;;;4843056;29;20054;-84
2023/12/14 12:48:20;;;;;;;19.73;9.40;;;4.60;99.90;;;;;;4826408;29;20399;-84
2023/12/14 12:50:48;;;;;;;21.90;9.77;;;4.20;99.90;;;;;;4827055;29;20089;-84
2023/12/14 12:53:14;;;;;;;21.00;9.87;;;4.60;99.90;;;;;;4826618;29;20046;-84
2023/12/14 12:55:49;;;;;;;20.80;9.43;;;6.60;99.90;;;;;;4826184;29;20110;-84
2023/12/14 12:58:26;;;;;;;22.50;10.63;;;5.20;99.90;;;;;;4826114;29;20087;-83
2023/12/14 13:00:51;;;;;;;22.90;11.87;;;3.70;99.90;;;;;;4825988;29;20121;-84
2023/12/14 13:03:17;;;;;;;19.57;9.13;;;5.40;99.90;;;;;;4826616;29;20185;-84
2023/12/14 13:05:46;;;;;;;18.90;9.37;;;4.80;99.90;;;;;;4826999;29;20117;-84
2023/12/14 13:08:17;;;;;;;21.00;9.63;;;5.20;99.90;;;;;;4825535;29;20053;-84
2023/12/14 13:11:34;;;;;;;21.50;11.13;;;4.70;99.90;;;;;;4826394;29;20562;-84
2023/12/14 13:14:02;;;;;;;18.77;9.47;;;5.10;99.90;;;;;;4859494;24;20132;-84
2023/12/14 13:16:27;;;;;;;21.40;9.17;;;5.10;99.90;;;;;;4859633;29;20065;-84
2023/12/14 13:18:53;;;;;;;21.40;8.40;;;5.10;99.90;;;;;;4859633;29;20049;-84
2023/12/14 13:21:29;;;;;;;20.90;9.43;;;5.10;99.90;;;;;;4857243;29;20450;-84
2023/12/14 13:23:57;;;;;;;20.17;8.27;;;6.30;99.90;;;;;;4840520;29;20098;-84
2023/12/14 13:26:24;;;;;;;19.70;8.13;;;5.00;99.90;;;;;;4841486;29;20102;-84
2023/12/14 13:28:56;;;;;;;22.43;8.97;;;4.60;99.90;;;;;;4843494;29;20042;-84
2023/12/14 13:31:40;;;;;;;18.93;9.17;;;4.80;99.90;;;;;;4842902;29;20558;-84
2023/12/14 13:34:24;;;;;;;16.13;7.85;;;5.80;99.90;;;;;;4842733;29;20060;-84
2023/12/14 13:36:49;;;;;;;19.85;8.38;;;6.10;99.90;;;;;;4840529;29;20176;-84